createdAt,value
2023-01-01T00:00:55.108Z,99.72
2023-01-01T00:02:17.111Z,101.13
2023-01-01T00:03:39.708Z,103.72
2023-01-01T00:05:01.238Z,113.03
2023-01-01T00:06:23.950Z,119.50
2023-01-01T00:07:45.754Z,126.38
2023-01-01T00:09:26.219Z,114.65
2023-01-01T00:10:48.060Z,109.70
2023-01-01T00:12:09.859Z,108.90
2023-01-01T00:13:31.972Z,113.82
2023-01-01T00:14:53.913Z,118.25
2023-01-01T00:16:15.845Z,117.15
2023-01-01T00:17:37.771Z,118.93
2023-01-01T00:18:59.860Z,124.32
2023-01-01T00:20:21.663Z,122.20
2023-01-01T00:21:43.465Z,131.10
2023-01-01T00:23:05.142Z,136.35
2023-01-01T00:24:27.112Z,142.10
2023-01-01T00:25:49.019Z,144.38
2023-01-01T00:27:11.108Z,146.48
2023-01-01T00:28:32.984Z,145.60
2023-01-01T00:29:54.821Z,153.73
2023-01-01T00:31:20.407Z,164.55
2023-01-01T00:32:42.131Z,160.10
2023-01-01T00:34:03.953Z,150.77
2023-01-01T00:35:26.996Z,145.95
2023-01-01T00:36:48.709Z,144.85
2023-01-01T00:38:10.588Z,140.63
2023-01-01T00:39:32.492Z,137.93
2023-01-01T00:40:54.396Z,139.70
2023-01-01T00:42:16.339Z,137.32
2023-01-01T00:43:38.102Z,132.57
2023-01-01T00:44:59.968Z,133.07
2023-01-01T00:46:21.867Z,126.57
2023-01-01T00:47:43.894Z,124.18
2023-01-01T00:49:05.822Z,131.77
2023-01-01T00:50:27.822Z,126.30
2023-01-01T00:51:49.951Z,133.65
2023-01-01T00:53:12.037Z,133.85
2023-01-01T00:54:33.577Z,149.40
2023-01-01T00:55:56.573Z,149.48
2023-01-01T00:57:18.329Z,156.98
2023-01-01T00:58:40.167Z,141.43
2023-01-01T01:00:02.176Z,156.40
2023-01-01T01:01:24.224Z,144.02
2023-01-01T01:02:46.979Z,128.52
2023-01-01T01:04:09.462Z,115.80
2023-01-01T01:05:32.332Z,101.07
2023-01-01T01:06:53.866Z,96.28
2023-01-01T01:08:15.789Z,98.28
2023-01-01T01:09:37.758Z,94.70
2023-01-01T01:11:07.824Z,96.22
2023-01-01T01:12:29.404Z,93.65
2023-01-01T01:13:53.777Z,88.82
2023-01-01T01:15:15.675Z,88.45
2023-01-01T01:16:37.433Z,81.25
2023-01-01T01:17:59.031Z,83.18
2023-01-01T01:19:24.039Z,78.53
2023-01-01T01:20:51.918Z,77.22
2023-01-01T01:22:13.863Z,78.47
2023-01-01T01:23:36.142Z,78.05
2023-01-01T01:24:58.673Z,84.60
2023-01-01T01:26:23.624Z,84.20
2023-01-01T01:27:45.306Z,83.30
2023-01-01T01:29:07.289Z,86.63
2023-01-01T01:30:30.590Z,86.15
2023-01-01T01:31:52.270Z,79.75
2023-01-01T01:33:14.286Z,80.60
2023-01-01T01:34:36.229Z,78.05
2023-01-01T01:35:58.540Z,78.93
2023-01-01T01:37:20.493Z,82.22
2023-01-01T01:38:43.012Z,80.15
2023-01-01T01:40:05.009Z,81.50
2023-01-01T01:41:29.114Z,84.43
2023-01-01T01:42:52.239Z,83.72
2023-01-01T01:44:51.603Z,86.78
2023-01-01T01:46:34.580Z,86.65
2023-01-01T01:47:58.887Z,87.85
2023-01-01T01:49:32.028Z,84.07
2023-01-01T01:50:56.503Z,82.82
2023-01-01T01:52:18.545Z,92.25
2023-01-01T01:53:46.264Z,88.55
2023-01-01T01:55:09.855Z,94.95
2023-01-01T01:56:49.749Z,94.90
2023-01-01T01:59:38.605Z,85.97
2023-01-01T02:01:01.138Z,93.38
2023-01-01T02:02:58.386Z,102.18
2023-01-01T02:04:20.947Z,103.95
2023-01-01T02:05:43.171Z,103.72
2023-01-01T02:07:05.355Z,96.38
2023-01-01T02:08:28.457Z,98.47
2023-01-01T02:09:50.598Z,98.82
2023-01-01T02:11:14.211Z,103.43
2023-01-01T02:12:39.468Z,100.82
2023-01-01T02:14:05.222Z,97.38
2023-01-01T02:15:33.932Z,96.57
2023-01-01T02:17:00.663Z,91.65
2023-01-01T02:18:28.840Z,89.63
2023-01-01T02:20:19.154Z,93.60
2023-01-01T02:22:04.003Z,86.35
2023-01-01T02:23:53.214Z,86.35
2023-01-01T02:25:24.159Z,81.95
2023-01-01T02:27:03.495Z,82.57
2023-01-01T02:28:53.456Z,77.50
2023-01-01T02:30:16.095Z,74.40
2023-01-01T02:31:47.692Z,72.45
2023-01-01T02:33:16.411Z,71.03
2023-01-01T02:34:54.953Z,50.17
2023-01-01T02:36:19.045Z,64.55
2023-01-01T02:37:41.557Z,64.10
2023-01-01T02:39:07.116Z,63.55
2023-01-01T02:40:29.402Z,61.67
2023-01-01T02:41:54.819Z,63.28
2023-01-01T02:43:22.988Z,59.67
2023-01-01T02:46:12.528Z,62.78
2023-01-01T02:47:34.252Z,63.58
2023-01-01T02:48:56.087Z,61.53
2023-01-01T02:50:23.965Z,64.07
2023-01-01T02:51:57.712Z,65.45
2023-01-01T02:53:37.375Z,64.13
2023-01-01T02:55:30.796Z,65.72
2023-01-01T02:57:04.008Z,66.28
2023-01-01T02:58:58.255Z,62.90
2023-01-01T03:00:31.369Z,69.38
2023-01-01T03:02:18.595Z,66.13
2023-01-01T03:04:05.759Z,67.65
2023-01-01T03:06:15.468Z,68.30
2023-01-01T03:07:49.934Z,63.95
2023-01-01T03:09:23.290Z,63.25
2023-01-01T03:11:03.441Z,59.25
2023-01-01T03:12:43.881Z,60.22
2023-01-01T03:14:44.005Z,58.30
2023-01-01T03:17:41.325Z,57.92
2023-01-01T03:19:11.415Z,59.72
2023-01-01T03:20:38.990Z,58.00
2023-01-01T03:22:09.027Z,56.45
2023-01-01T03:23:37.002Z,56.53
2023-01-01T03:25:14.690Z,54.95
2023-01-01T03:26:39.004Z,53.70
2023-01-01T03:28:18.694Z,55.78
2023-01-01T03:29:42.664Z,54.38
2023-01-01T03:31:04.644Z,50.30
2023-01-01T03:32:56.024Z,49.10
2023-01-01T03:34:23.733Z,50.67
2023-01-01T03:35:50.489Z,50.20
2023-01-01T03:37:18.616Z,46.72
2023-01-01T03:38:52.130Z,45.90
2023-01-01T03:40:15.161Z,48.17
2023-01-01T03:41:56.767Z,46.30
2023-01-01T03:43:49.429Z,44.15
2023-01-01T03:45:39.180Z,44.38
2023-01-01T03:47:01.893Z,44.17
2023-01-01T03:48:23.778Z,42.35
2023-01-01T03:49:46.471Z,40.17
2023-01-01T03:51:22.126Z,35.03
2023-01-01T03:53:08.058Z,34.25
2023-01-01T03:54:46.160Z,33.80
2023-01-01T03:56:22.324Z,33.88
2023-01-01T03:57:49.824Z,29.77
2023-01-01T03:59:35.221Z,29.27
2023-01-01T04:01:06.798Z,29.35
2023-01-01T04:02:36.743Z,30.00
2023-01-01T04:04:01.511Z,32.10
2023-01-01T04:05:25.021Z,31.75
2023-01-01T04:06:47.362Z,31.75
2023-01-01T04:08:10.574Z,30.30
2023-01-01T04:09:36.945Z,34.05
2023-01-01T04:11:00.686Z,37.25
2023-01-01T04:12:22.676Z,41.08
2023-01-01T04:13:48.793Z,48.97
2023-01-01T04:15:10.733Z,48.13
2023-01-01T04:16:32.668Z,47.90
2023-01-01T04:17:55.079Z,46.10
2023-01-01T04:19:16.896Z,46.65
2023-01-01T04:20:38.861Z,49.03
2023-01-01T04:22:01.360Z,50.33
2023-01-01T04:23:23.232Z,52.70
2023-01-01T04:24:45.099Z,55.80
2023-01-01T04:26:11.645Z,61.92
2023-01-01T04:27:33.617Z,70.50
2023-01-01T04:28:55.256Z,73.38
2023-01-01T04:30:17.983Z,73.32
2023-01-01T04:31:39.981Z,77.45
2023-01-01T04:33:01.900Z,76.10
2023-01-01T04:34:23.772Z,88.05
2023-01-01T04:35:45.905Z,89.53
2023-01-01T04:37:12.905Z,83.03
2023-01-01T04:38:35.893Z,88.40
2023-01-01T04:39:58.300Z,93.07
2023-01-01T04:41:20.362Z,90.93
2023-01-01T04:42:43.178Z,85.53
2023-01-01T04:44:05.789Z,82.43
2023-01-01T04:45:27.797Z,81.88
2023-01-01T04:46:50.847Z,84.35
2023-01-01T04:48:15.100Z,81.07
2023-01-01T04:49:37.148Z,82.95
2023-01-01T04:51:01.585Z,83.95
2023-01-01T04:52:23.783Z,84.50
2023-01-01T04:53:46.020Z,78.55
2023-01-01T04:55:08.140Z,84.10
2023-01-01T04:56:30.717Z,96.38
2023-01-01T04:57:52.606Z,91.32
2023-01-01T04:59:14.577Z,92.93
2023-01-01T05:00:36.524Z,105.28
2023-01-01T05:01:59.008Z,107.13
2023-01-01T05:03:20.713Z,107.65
2023-01-01T05:04:42.725Z,110.78
2023-01-01T05:06:10.470Z,119.18
2023-01-01T05:07:33.853Z,113.68
2023-01-01T05:08:58.429Z,110.43
2023-01-01T05:10:20.119Z,106.93
2023-01-01T05:11:42.060Z,102.82
2023-01-01T05:13:08.649Z,109.25
2023-01-01T05:14:30.219Z,119.63
2023-01-01T05:15:52.013Z,125.70
2023-01-01T05:17:14.873Z,123.10
2023-01-01T05:18:37.781Z,116.30
2023-01-01T05:20:00.404Z,121.68
2023-01-01T05:21:27.808Z,117.88
2023-01-01T05:22:49.352Z,113.78
2023-01-01T05:24:11.503Z,112.85
2023-01-01T05:25:33.105Z,114.75
2023-01-01T05:26:55.035Z,109.97
2023-01-01T05:28:16.597Z,111.57
2023-01-01T05:29:38.613Z,109.38
2023-01-01T05:31:04.778Z,106.88
2023-01-01T05:32:26.483Z,109.40
2023-01-01T05:33:49.299Z,106.22
2023-01-01T05:35:11.232Z,106.72
2023-01-01T05:36:38.440Z,108.72
2023-01-01T05:38:00.489Z,107.22
2023-01-01T05:39:21.971Z,107.60
2023-01-01T05:40:43.841Z,111.30
2023-01-01T05:42:05.842Z,109.10
2023-01-01T05:43:30.007Z,115.45
2023-01-01T05:44:51.907Z,111.20
2023-01-01T05:46:31.903Z,113.97
2023-01-01T05:47:53.846Z,114.35
2023-01-01T05:49:15.590Z,118.82
2023-01-01T05:50:37.148Z,117.57
2023-01-01T05:51:58.949Z,118.60
2023-01-01T05:53:20.720Z,121.70
2023-01-01T05:54:42.843Z,122.80
2023-01-01T05:56:05.631Z,121.97
2023-01-01T05:57:29.297Z,126.05
2023-01-01T05:58:51.044Z,121.75
2023-01-01T06:00:13.319Z,124.72
2023-01-01T06:01:38.737Z,120.38
2023-01-01T06:03:05.116Z,121.53
2023-01-01T06:04:26.890Z,123.43
2023-01-01T06:05:48.994Z,124.75
2023-01-01T06:07:10.967Z,118.43
2023-01-01T06:08:32.947Z,112.93
2023-01-01T06:09:54.623Z,111.90
2023-01-01T06:11:16.570Z,115.32
2023-01-01T06:12:38.446Z,112.50
2023-01-01T06:14:01.348Z,115.90
2023-01-01T06:15:23.199Z,115.38
2023-01-01T06:16:45.181Z,113.25
2023-01-01T06:18:07.258Z,115.75
2023-01-01T06:19:29.337Z,115.82
2023-01-01T06:20:51.891Z,117.07
2023-01-01T06:22:13.520Z,112.68
2023-01-01T06:23:35.459Z,111.47
2023-01-01T06:24:57.382Z,112.78
2023-01-01T06:26:23.577Z,117.13
2023-01-01T06:27:45.441Z,118.32
2023-01-01T06:29:07.290Z,126.63
2023-01-01T06:30:28.986Z,123.45
2023-01-01T06:31:50.464Z,143.18
2023-01-01T06:33:12.479Z,140.55
2023-01-01T06:34:34.305Z,131.70
2023-01-01T06:35:56.372Z,139.90
2023-01-01T06:37:17.851Z,140.40
2023-01-01T06:38:42.621Z,134.35
2023-01-01T06:40:05.433Z,132.35
2023-01-01T06:41:28.672Z,131.63
2023-01-01T06:42:50.695Z,127.63
2023-01-01T06:44:12.312Z,135.50
2023-01-01T06:45:34.129Z,130.77
2023-01-01T06:46:55.961Z,126.68
2023-01-01T06:48:17.941Z,129.60
2023-01-01T06:49:39.847Z,145.02
2023-01-01T06:51:08.423Z,145.60
2023-01-01T06:52:30.607Z,120.03
2023-01-01T06:53:52.942Z,112.45
2023-01-01T06:55:14.699Z,117.20
2023-01-01T06:56:37.015Z,94.63
2023-01-01T06:57:59.078Z,79.15
2023-01-01T06:59:20.789Z,70.82
2023-01-01T07:00:43.584Z,68.85
2023-01-01T07:02:05.870Z,77.05
2023-01-01T07:03:28.110Z,85.13
2023-01-01T07:04:50.311Z,75.57
2023-01-01T07:06:12.157Z,74.68
2023-01-01T07:07:36.059Z,76.03
2023-01-01T07:08:58.823Z,74.45
2023-01-01T07:10:20.383Z,74.38
2023-01-01T07:11:42.406Z,82.00
2023-01-01T07:13:04.292Z,93.05
2023-01-01T07:14:26.181Z,96.00
2023-01-01T07:15:48.002Z,109.63
2023-01-01T07:17:09.902Z,123.25
2023-01-01T07:18:31.817Z,105.70
2023-01-01T07:19:53.836Z,109.43
2023-01-01T07:21:29.454Z,112.95
2023-01-01T07:22:51.625Z,124.65
2023-01-01T07:24:15.466Z,140.63
2023-01-01T07:25:37.150Z,155.75
2023-01-01T07:26:59.018Z,127.63
2023-01-01T07:28:22.293Z,112.97
2023-01-01T07:29:43.932Z,94.35
2023-01-01T07:31:05.905Z,90.97
2023-01-01T07:32:27.819Z,121.63
2023-01-01T07:33:50.059Z,149.20
2023-01-01T07:35:11.697Z,104.90
2023-01-01T07:36:34.266Z,94.75
2023-01-01T07:37:55.967Z,82.47
2023-01-01T07:39:17.891Z,83.53
2023-01-01T07:40:39.814Z,83.38
2023-01-01T07:42:04.881Z,94.47
2023-01-01T07:43:29.304Z,97.90
2023-01-01T07:44:51.018Z,97.15
2023-01-01T07:46:16.623Z,102.35
2023-01-01T07:47:38.371Z,112.68
2023-01-01T07:49:00.280Z,139.02
2023-01-01T07:50:23.896Z,128.43
2023-01-01T07:51:45.765Z,115.05
2023-01-01T07:53:08.218Z,234.65
2023-01-01T07:54:30.326Z,145.45
2023-01-01T07:55:52.356Z,125.10
2023-01-01T07:57:13.912Z,127.13
2023-01-01T07:58:38.806Z,107.68
2023-01-01T08:00:00.685Z,122.57
2023-01-01T08:01:22.874Z,83.28
2023-01-01T08:02:45.472Z,70.65
2023-01-01T08:04:07.623Z,72.90
2023-01-01T08:05:29.193Z,70.03
2023-01-01T08:06:51.044Z,65.70
2023-01-01T08:08:12.855Z,66.40
2023-01-01T08:09:34.847Z,137.52
2023-01-01T08:11:03.869Z,204.85
2023-01-01T08:12:26.458Z,121.18
2023-01-01T08:13:48.271Z,109.70
2023-01-01T08:15:10.874Z,91.78
2023-01-01T08:16:32.778Z,96.28
2023-01-01T08:17:58.415Z,95.50
2023-01-01T08:19:20.236Z,92.82
2023-01-01T08:20:42.144Z,75.22
2023-01-01T08:22:04.295Z,76.80
2023-01-01T08:23:26.049Z,141.38
2023-01-01T08:24:47.608Z,129.82
2023-01-01T08:26:19.081Z,75.68
2023-01-01T08:27:40.595Z,61.08
2023-01-01T08:29:06.952Z,58.97
2023-01-01T08:30:29.458Z,135.43
2023-01-01T08:31:51.466Z,100.53
2023-01-01T08:33:13.520Z,77.53
2023-01-01T08:34:35.366Z,145.93
2023-01-01T08:35:57.329Z,77.28
2023-01-01T08:37:21.403Z,81.07
2023-01-01T08:38:43.941Z,84.10
2023-01-01T08:40:06.339Z,89.03
2023-01-01T08:41:27.869Z,82.20
2023-01-01T08:42:49.834Z,88.03
2023-01-01T08:44:11.850Z,107.60
2023-01-01T08:45:34.026Z,83.15
2023-01-01T08:46:55.856Z,134.80
2023-01-01T08:48:17.790Z,114.20
2023-01-01T08:49:39.456Z,100.72
2023-01-01T08:51:02.111Z,93.65
2023-01-01T08:52:23.982Z,94.90
2023-01-01T08:53:50.942Z,111.43
2023-01-01T08:55:13.314Z,117.28
2023-01-01T08:56:35.146Z,111.95
2023-01-01T08:57:57.033Z,61.30
2023-01-01T08:59:19.162Z,50.00
2023-01-01T09:00:41.055Z,61.38
2023-01-01T09:02:03.431Z,148.43
2023-01-01T09:03:25.887Z,74.50
2023-01-01T09:04:47.610Z,70.05
2023-01-01T09:06:09.418Z,110.85
2023-01-01T09:07:31.428Z,107.80
2023-01-01T09:08:53.170Z,107.75
2023-01-01T09:10:15.547Z,105.43
2023-01-01T09:11:37.636Z,71.05
2023-01-01T09:12:59.653Z,57.55
2023-01-01T09:14:22.124Z,53.65
2023-01-01T09:15:44.203Z,45.30
2023-01-01T09:17:06.169Z,48.30
2023-01-01T09:18:28.182Z,47.10
2023-01-01T09:19:50.158Z,47.13
2023-01-01T09:21:12.275Z,47.65
2023-01-01T09:22:34.624Z,43.88
2023-01-01T09:23:56.502Z,46.45
2023-01-01T09:25:18.671Z,48.92
2023-01-01T09:26:40.450Z,48.50
2023-01-01T09:28:05.218Z,52.92
2023-01-01T09:29:27.009Z,64.60
2023-01-01T09:30:48.789Z,73.32
2023-01-01T09:32:10.589Z,80.85
2023-01-01T09:33:33.259Z,80.50
2023-01-01T09:34:55.015Z,85.35
2023-01-01T09:36:22.546Z,88.20
2023-01-01T09:37:44.636Z,97.10
2023-01-01T09:39:06.773Z,81.78
2023-01-01T09:40:42.636Z,89.20
2023-01-01T09:42:35.873Z,93.18
2023-01-01T09:45:32.923Z,106.30
2023-01-01T09:46:59.563Z,101.38
2023-01-01T09:48:23.797Z,84.72
2023-01-01T09:49:47.946Z,66.13
2023-01-01T09:51:18.072Z,85.72
2023-01-01T09:52:57.114Z,77.03
2023-01-01T09:54:18.920Z,60.38
2023-01-01T09:56:00.914Z,59.05
2023-01-01T09:57:30.911Z,59.75
2023-01-01T09:58:56.168Z,73.18
2023-01-01T10:00:19.359Z,82.65
2023-01-01T10:01:53.178Z,87.25
2023-01-01T10:03:56.459Z,66.68
2023-01-01T10:05:52.616Z,66.80
2023-01-01T10:07:45.675Z,60.53
2023-01-01T10:09:34.563Z,137.75
2023-01-01T10:11:06.327Z,119.68
2023-01-01T10:12:40.737Z,83.32
2023-01-01T10:14:08.250Z,85.47
2023-01-01T10:15:37.973Z,82.63
2023-01-01T10:17:11.377Z,79.28
2023-01-01T10:18:38.328Z,121.35
2023-01-01T10:20:07.468Z,94.43
2023-01-01T10:21:38.633Z,88.00
2023-01-01T10:23:19.448Z,69.57
2023-01-01T10:24:47.139Z,72.53
2023-01-01T10:26:16.282Z,64.45
2023-01-01T10:27:44.932Z,65.35
2023-01-01T10:29:18.544Z,64.75
2023-01-01T10:30:43.049Z,51.40
2023-01-01T10:32:30.615Z,45.90
2023-01-01T10:33:52.776Z,44.95
2023-01-01T10:35:17.205Z,46.53
2023-01-01T10:36:39.179Z,46.03
2023-01-01T10:38:02.318Z,40.97
2023-01-01T10:39:25.053Z,39.95
2023-01-01T10:40:46.769Z,38.55
2023-01-01T10:42:10.727Z,38.85
2023-01-01T10:43:32.423Z,40.75
2023-01-01T10:44:55.586Z,44.03
2023-01-01T10:46:27.685Z,43.78
2023-01-01T10:48:20.547Z,42.85
2023-01-01T10:50:07.839Z,44.50
2023-01-01T10:51:29.545Z,45.20
2023-01-01T10:52:57.484Z,53.03
2023-01-01T10:54:40.356Z,53.80
2023-01-01T10:56:13.100Z,56.70
2023-01-01T10:57:38.786Z,46.60
2023-01-01T10:59:00.404Z,45.72
2023-01-01T11:00:22.635Z,43.70
2023-01-01T11:01:45.240Z,42.88
2023-01-01T11:03:21.389Z,43.67
2023-01-01T11:04:43.092Z,48.78
2023-01-01T11:06:24.956Z,47.75
2023-01-01T11:07:47.859Z,50.42
2023-01-01T11:09:28.480Z,55.85
2023-01-01T11:10:53.753Z,51.22
2023-01-01T11:13:02.922Z,55.65
2023-01-01T11:14:25.598Z,52.35
2023-01-01T11:15:47.739Z,55.50
2023-01-01T11:17:10.545Z,55.55
2023-01-01T11:18:36.224Z,58.97
2023-01-01T11:20:02.935Z,52.13
2023-01-01T11:21:25.227Z,47.75
2023-01-01T11:22:52.819Z,47.17
2023-01-01T11:24:21.499Z,50.85
2023-01-01T11:26:17.391Z,46.25
2023-01-01T11:27:39.231Z,47.50
2023-01-01T11:29:05.335Z,43.75
2023-01-01T11:30:29.394Z,46.47
2023-01-01T11:31:52.533Z,43.92
2023-01-01T11:33:17.789Z,48.50
2023-01-01T11:34:43.082Z,38.38
2023-01-01T11:36:06.689Z,38.13
2023-01-01T11:37:36.282Z,42.47
2023-01-01T11:39:23.225Z,42.75
2023-01-01T11:40:52.672Z,39.50
2023-01-01T11:42:34.357Z,40.63
2023-01-01T11:43:56.300Z,36.30
2023-01-01T11:45:32.917Z,41.55
2023-01-01T11:46:58.043Z,40.40
2023-01-01T11:48:26.065Z,39.97
2023-01-01T11:49:53.837Z,30.17
2023-01-01T11:51:31.898Z,39.08
2023-01-01T11:52:58.257Z,27.88
2023-01-01T11:54:27.922Z,30.98
2023-01-01T11:56:00.365Z,129.82
2023-01-01T11:57:25.754Z,42.05
2023-01-01T11:59:16.384Z,30.80
2023-01-01T12:00:38.583Z,20.08
2023-01-01T12:02:04.389Z,21.40
2023-01-01T12:03:49.181Z,21.33
2023-01-01T12:05:48.643Z,26.58
2023-01-01T12:07:18.361Z,24.63
2023-01-01T12:08:51.470Z,25.35
2023-01-01T12:10:40.333Z,28.52
2023-01-01T12:12:17.601Z,42.53
2023-01-01T12:13:51.203Z,23.80
2023-01-01T12:15:28.852Z,50.17
2023-01-01T12:16:58.101Z,116.53
2023-01-01T12:18:49.396Z,36.30
2023-01-01T12:20:30.521Z,20.52
2023-01-01T12:21:58.822Z,21.35
2023-01-01T12:23:20.798Z,37.20
2023-01-01T12:24:43.174Z,39.95
2023-01-01T12:26:20.607Z,62.55
2023-01-01T12:28:19.334Z,38.53
2023-01-01T12:29:53.326Z,44.50
2023-01-01T12:31:28.577Z,30.98
2023-01-01T12:33:16.806Z,17.95
2023-01-01T12:34:57.347Z,18.95
2023-01-01T12:36:45.022Z,27.17
2023-01-01T12:39:00.637Z,40.40
2023-01-01T12:40:51.709Z,19.73
2023-01-01T12:42:29.964Z,31.15
2023-01-01T12:44:15.573Z,26.25
2023-01-01T12:45:42.867Z,29.60
2023-01-01T12:47:19.899Z,93.45
2023-01-01T12:48:47.638Z,36.80
2023-01-01T12:50:21.771Z,29.48
2023-01-01T12:51:55.249Z,28.20
2023-01-01T12:53:54.651Z,18.92
2023-01-01T12:57:09.517Z,15.15
2023-01-01T12:58:39.685Z,21.83
2023-01-01T13:00:04.472Z,36.85
2023-01-01T13:01:33.950Z,24.60
2023-01-01T13:03:18.593Z,40.72
2023-01-01T13:04:41.961Z,17.67
2023-01-01T13:06:04.796Z,38.20
2023-01-01T13:07:43.042Z,15.65
2023-01-01T13:09:15.118Z,16.85
2023-01-01T13:10:40.637Z,12.38
2023-01-01T13:12:16.265Z,34.80
2023-01-01T13:13:38.188Z,13.77
2023-01-01T13:14:59.889Z,12.02
2023-01-01T13:16:39.339Z,11.50
2023-01-01T13:18:05.365Z,10.77
2023-01-01T13:19:33.669Z,10.05
2023-01-01T13:20:59.128Z,10.20
2023-01-01T13:22:27.141Z,9.88
2023-01-01T13:23:50.305Z,8.48
2023-01-01T13:25:11.845Z,9.63
2023-01-01T13:26:35.346Z,9.80
2023-01-01T13:28:00.585Z,14.77
2023-01-01T13:29:22.398Z,12.07
2023-01-01T13:30:44.239Z,13.43
2023-01-01T13:32:07.485Z,13.35
2023-01-01T13:33:33.313Z,12.07
2023-01-01T13:35:03.240Z,9.30
2023-01-01T13:36:25.273Z,10.07
2023-01-01T13:37:47.941Z,9.35
2023-01-01T13:39:09.553Z,14.02
2023-01-01T13:40:47.555Z,22.83
2023-01-01T13:42:57.645Z,16.88
2023-01-01T13:44:23.873Z,17.35
2023-01-01T13:46:13.610Z,58.78
2023-01-01T13:47:49.270Z,28.85
2023-01-01T13:49:29.701Z,56.05
2023-01-01T13:51:33.638Z,44.75
2023-01-01T13:53:00.935Z,51.38
2023-01-01T13:55:06.056Z,53.28
2023-01-01T13:56:52.584Z,42.53
2023-01-01T13:58:40.786Z,40.72
2023-01-01T14:00:26.021Z,42.72
2023-01-01T14:02:12.406Z,45.30
2023-01-01T14:03:42.456Z,48.10
2023-01-01T14:05:32.863Z,52.38
2023-01-01T14:06:58.330Z,68.88
2023-01-01T14:08:32.785Z,68.50
2023-01-01T14:10:07.993Z,66.78
2023-01-01T14:11:30.028Z,63.72
2023-01-01T14:12:53.098Z,69.22
2023-01-01T14:14:31.131Z,71.30
2023-01-01T14:16:01.442Z,65.57
2023-01-01T14:17:24.427Z,66.20
2023-01-01T14:18:50.171Z,60.05
2023-01-01T14:20:18.736Z,50.13
2023-01-01T14:21:40.526Z,50.60
2023-01-01T14:23:16.157Z,63.35
2023-01-01T14:24:48.367Z,93.25
2023-01-01T14:26:22.028Z,79.47
2023-01-01T14:27:45.133Z,77.28
2023-01-01T14:29:17.168Z,93.95
2023-01-01T14:30:38.807Z,96.07
2023-01-01T14:32:12.208Z,99.40
2023-01-01T14:33:34.948Z,108.95
2023-01-01T14:35:01.802Z,90.95
2023-01-01T14:36:32.015Z,87.43
2023-01-01T14:39:28.824Z,80.53
2023-01-01T14:41:11.438Z,72.55
2023-01-01T14:42:34.720Z,83.10
2023-01-01T14:44:18.751Z,96.97
2023-01-01T14:45:43.980Z,101.40
2023-01-01T14:47:16.869Z,103.20
2023-01-01T14:48:42.330Z,103.95
2023-01-01T14:50:16.998Z,87.35
2023-01-01T14:51:45.627Z,66.38
2023-01-01T14:53:13.546Z,59.42
2023-01-01T14:54:42.430Z,56.63
2023-01-01T14:56:07.137Z,59.22
2023-01-01T14:57:37.400Z,54.03
2023-01-01T15:00:35.517Z,47.30
2023-01-01T15:02:12.572Z,44.00
2023-01-01T15:03:34.581Z,44.90
2023-01-01T15:04:57.795Z,45.15
2023-01-01T15:06:19.731Z,50.90
2023-01-01T15:07:41.709Z,55.83
2023-01-01T15:09:03.808Z,64.97
2023-01-01T15:10:28.217Z,84.28
2023-01-01T15:11:53.468Z,111.20
2023-01-01T15:13:26.813Z,136.30
2023-01-01T15:14:50.950Z,155.60
2023-01-01T15:16:17.858Z,117.10
2023-01-01T15:17:47.964Z,107.28
2023-01-01T15:19:19.663Z,79.75
2023-01-01T15:20:41.781Z,74.63
2023-01-01T15:22:29.570Z,68.95
2023-01-01T15:24:11.626Z,54.55
2023-01-01T15:25:36.306Z,64.00
2023-01-01T15:27:01.055Z,69.00
2023-01-01T15:28:22.796Z,56.67
2023-01-01T15:29:47.641Z,51.92
2023-01-01T15:31:10.281Z,46.25
2023-01-01T15:32:38.721Z,46.47
2023-01-01T15:34:00.519Z,40.50
2023-01-01T15:35:31.775Z,42.50
2023-01-01T15:36:55.678Z,55.75
2023-01-01T15:38:26.515Z,57.13
2023-01-01T15:39:52.189Z,56.17
2023-01-01T15:41:45.337Z,53.53
2023-01-01T15:43:19.918Z,73.25
2023-01-01T15:44:41.952Z,60.42
2023-01-01T15:46:22.120Z,51.28
2023-01-01T15:47:45.135Z,48.60
2023-01-01T15:49:25.284Z,47.33
2023-01-01T15:50:50.628Z,48.50
2023-01-01T15:52:27.380Z,46.88
2023-01-01T15:53:59.483Z,51.15
2023-01-01T15:55:21.542Z,38.03
2023-01-01T15:56:43.656Z,34.67
2023-01-01T15:58:05.384Z,34.17
2023-01-01T15:59:33.458Z,32.10
2023-01-01T16:01:08.029Z,35.42
2023-01-01T16:02:36.374Z,37.00
2023-01-01T16:04:28.312Z,38.05
2023-01-01T16:05:53.495Z,38.83
2023-01-01T16:07:23.428Z,37.83
2023-01-01T16:08:46.048Z,37.25
2023-01-01T16:10:18.044Z,30.33
2023-01-01T16:11:39.897Z,32.20
2023-01-01T16:13:01.788Z,32.85
2023-01-01T16:14:24.419Z,35.13
2023-01-01T16:15:58.511Z,36.03
2023-01-01T16:17:21.449Z,37.28
2023-01-01T16:18:44.345Z,42.38
2023-01-01T16:20:06.682Z,41.47
2023-01-01T16:21:32.911Z,46.63
2023-01-01T16:22:54.810Z,45.08
2023-01-01T16:24:18.856Z,52.08
2023-01-01T16:25:40.554Z,63.33
2023-01-01T16:27:02.452Z,69.15
2023-01-01T16:28:24.240Z,72.30
2023-01-01T16:29:52.760Z,68.47
2023-01-01T16:31:23.391Z,61.45
2023-01-01T16:32:46.028Z,51.58
2023-01-01T16:34:09.113Z,34.00
2023-01-01T16:35:30.799Z,42.58
2023-01-01T16:36:52.668Z,48.20
2023-01-01T16:38:14.832Z,53.42
2023-01-01T16:39:36.473Z,55.47
2023-01-01T16:40:58.566Z,65.60
2023-01-01T16:42:20.280Z,71.75
2023-01-01T16:43:43.223Z,75.15
2023-01-01T16:45:05.597Z,83.70
2023-01-01T16:46:28.171Z,92.65
2023-01-01T16:47:49.786Z,104.95
2023-01-01T16:49:11.694Z,104.82
2023-01-01T16:50:33.758Z,91.85
2023-01-01T16:51:55.581Z,92.63
2023-01-01T16:53:17.465Z,89.45
2023-01-01T16:54:41.073Z,84.18
2023-01-01T16:56:02.635Z,78.15
2023-01-01T16:57:24.702Z,77.63
2023-01-01T16:58:49.412Z,87.63
2023-01-01T17:00:12.984Z,109.55
2023-01-01T17:01:34.875Z,111.65
2023-01-01T17:02:56.950Z,117.47
2023-01-01T17:04:18.773Z,147.32
2023-01-01T17:05:44.384Z,157.68
2023-01-01T17:07:06.267Z,143.13
2023-01-01T17:08:28.152Z,144.25
2023-01-01T17:09:49.749Z,113.57
2023-01-01T17:11:17.601Z,101.00
2023-01-01T17:12:39.166Z,81.25
2023-01-01T17:14:02.495Z,67.97
2023-01-01T17:15:24.550Z,66.15
2023-01-01T17:16:46.241Z,64.85
2023-01-01T17:18:08.044Z,68.20
2023-01-01T17:19:30.035Z,66.38
2023-01-01T17:20:51.913Z,85.28
2023-01-01T17:22:13.978Z,93.43
2023-01-01T17:23:36.942Z,87.57
2023-01-01T17:24:58.897Z,86.57
2023-01-01T17:26:24.051Z,91.90
2023-01-01T17:27:45.736Z,83.57
2023-01-01T17:29:07.750Z,86.13
2023-01-01T17:30:29.863Z,82.22
2023-01-01T17:31:52.187Z,86.18
2023-01-01T17:33:13.956Z,89.10
2023-01-01T17:34:36.027Z,85.95
2023-01-01T17:35:58.347Z,76.72
2023-01-01T17:37:19.997Z,76.10
2023-01-01T17:38:44.176Z,84.43
2023-01-01T17:40:06.521Z,84.82
2023-01-01T17:41:28.382Z,97.25
2023-01-01T17:42:50.004Z,89.50
2023-01-01T17:44:12.495Z,91.03
2023-01-01T17:45:37.273Z,86.25
2023-01-01T17:46:58.879Z,107.65
2023-01-01T17:48:20.700Z,98.15
2023-01-01T17:49:43.308Z,96.45
2023-01-01T17:51:05.193Z,92.90
2023-01-01T17:52:27.064Z,96.90
2023-01-01T17:53:48.931Z,111.97
2023-01-01T17:55:10.718Z,113.50
2023-01-01T17:56:32.728Z,105.15
2023-01-01T17:57:56.828Z,95.72
2023-01-01T17:59:18.756Z,90.25
2023-01-01T18:00:40.474Z,82.55
2023-01-01T18:02:02.506Z,90.00
2023-01-01T18:03:24.615Z,88.15
2023-01-01T18:04:46.342Z,87.18
2023-01-01T18:06:09.720Z,84.18
2023-01-01T18:07:31.585Z,80.15
2023-01-01T18:08:59.040Z,83.50
2023-01-01T18:10:20.645Z,81.00
2023-01-01T18:11:43.658Z,82.82
2023-01-01T18:13:05.454Z,84.45
2023-01-01T18:14:27.589Z,80.63
2023-01-01T18:15:49.532Z,78.68
2023-01-01T18:17:11.397Z,77.40
2023-01-01T18:18:37.705Z,75.22
2023-01-01T18:19:59.686Z,76.20
2023-01-01T18:21:23.669Z,71.97
2023-01-01T18:22:45.903Z,68.07
2023-01-01T18:24:13.289Z,62.35
2023-01-01T18:25:35.133Z,61.75
2023-01-01T18:26:57.024Z,59.25
2023-01-01T18:28:18.850Z,65.10
2023-01-01T18:29:40.742Z,70.93
2023-01-01T18:31:11.845Z,69.90
2023-01-01T18:32:33.760Z,69.55
2023-01-01T18:33:56.076Z,71.20
2023-01-01T18:35:18.074Z,68.25
2023-01-01T18:36:39.797Z,69.57
2023-01-01T18:38:01.697Z,58.90
2023-01-01T18:39:28.688Z,58.22
2023-01-01T18:41:21.530Z,60.17
2023-01-01T18:42:51.093Z,55.85